Time,TemperatureF,DewpointF,PressureIn,WindDirection,WindDirectionDegrees,WindSpeedMPH,WindSpeedGustMPH,Humidity,HourlyPrecipIn,Conditions,Clouds,dailyrainin,SoftwareType,DateUTC
2013-06-26 00:02:00,85.0,66.0,29.79,SSE,153,8.0,13.0,53,0.00,,,0.00,,2013-06-26 05:02:00,
2013-06-26 00:11:00,85.0,66.0,29.80,SSE,166,7.0,12.0,53,0.00,,,0.00,,2013-06-26 05:11:00,
2013-06-26 00:22:00,84.0,66.0,29.81,SSE,155,6.0,10.0,54,0.00,,,0.00,,2013-06-26 05:22:00,
2013-06-26 00:34:00,84.0,66.0,29.80,SSE,149,7.0,13.0,55,0.00,,,0.00,,2013-06-26 05:34:00,
2013-06-26 00:43:00,84.0,66.0,29.81,SE,145,6.0,13.0,55,0.00,,,0.00,,2013-06-26 05:43:00,
2013-06-26 00:52:00,84.0,66.0,29.80,SSE,147,7.0,14.0,55,0.00,,,0.00,,2013-06-26 05:52:00,
2013-06-26 01:01:00,84.0,66.0,29.80,SE,146,9.0,18.0,54,0.00,,,0.00,,2013-06-26 06:01:00,
2013-06-26 01:11:00,83.0,65.0,29.80,SSE,161,8.0,21.0,54,0.00,,,0.00,,2013-06-26 06:11:00,
2013-06-26 01:22:00,83.0,64.0,29.80,SE,138,10.0,20.0,53,0.00,,,0.00,,2013-06-26 06:22:00,
2013-06-26 01:34:00,83.0,65.0,29.80,SSE,152,7.0,14.0,54,0.00,,,0.00,,2013-06-26 06:34:00,
2013-06-26 01:43:00,83.0,65.0,29.80,SSE,157,10.0,16.0,54,0.00,,,0.00,,2013-06-26 06:43:00,
2013-06-26 02:01:00,83.0,66.0,29.80,SSE,151,6.0,15.0,56,0.00,,,0.00,,2013-06-26 07:01:00,
2013-06-26 02:11:00,82.0,66.0,29.79,SSE,152,9.0,20.0,58,0.00,,,0.00,,2013-06-26 07:11:00,
2013-06-26 02:22:00,82.0,66.0,29.79,East,97,10.0,16.0,59,0.00,,,0.00,,2013-06-26 07:22:00,
2013-06-26 02:33:00,82.0,67.0,29.80,SSE,155,7.0,14.0,60,0.00,,,0.00,,2013-06-26 07:33:00,
2013-06-26 02:43:00,81.0,67.0,29.80,SE,136,9.0,16.0,62,0.00,,,0.00,,2013-06-26 07:43:00,
2013-06-26 02:53:00,81.0,68.0,29.80,SE,138,7.0,16.0,64,0.00,,,0.00,,2013-06-26 07:53:00,
2013-06-26 03:01:00,81.0,68.0,29.79,SSE,157,7.0,14.0,65,0.00,,,0.00,,2013-06-26 08:01:00,
2013-06-26 03:11:00,80.0,68.0,29.80,SSE,160,9.0,14.0,67,0.00,,,0.00,,2013-06-26 08:11:00,
2013-06-26 03:22:00,80.0,68.0,29.80,SE,140,9.0,16.0,68,0.00,,,0.00,,2013-06-26 08:22:00,
2013-06-26 03:33:00,80.0,69.0,29.80,SSE,149,7.0,15.0,69,0.00,,,0.00,,2013-06-26 08:33:00,
2013-06-26 03:42:00,80.0,69.0,29.80,SSE,155,9.0,15.0,70,0.00,,,0.00,,2013-06-26 08:42:00,
2013-06-26 03:52:00,79.0,69.0,29.79,SSE,151,9.0,22.0,71,0.00,,,0.00,,2013-06-26 08:52:00,
2013-06-26 04:01:00,79.0,69.0,29.80,SE,146,10.0,20.0,72,0.00,,,0.00,,2013-06-26 09:01:00,
2013-06-26 04:11:00,79.0,69.0,29.80,SSE,150,11.0,20.0,72,0.00,,,0.00,,2013-06-26 09:11:00,
2013-06-26 04:22:00,79.0,70.0,29.80,SSE,157,10.0,22.0,73,0.00,,,0.00,,2013-06-26 09:22:00,
2013-06-26 04:32:00,79.0,70.0,29.80,SSE,159,9.0,16.0,74,0.00,,,0.00,,2013-06-26 09:32:00,
2013-06-26 04:43:00,78.0,69.0,29.81,SSE,150,7.0,15.0,74,0.00,,,0.00,,2013-06-26 09:43:00,
2013-06-26 04:53:00,78.0,69.0,29.81,SSE,152,6.0,13.0,75,0.00,,,0.00,,2013-06-26 09:53:00,
2013-06-26 05:01:00,78.0,70.0,29.81,South,178,10.0,18.0,76,0.00,,,0.00,,2013-06-26 10:01:00,
2013-06-26 05:12:00,78.0,70.0,29.81,SE,141,9.0,20.0,76,0.00,,,0.00,,2013-06-26 10:12:00,
2013-06-26 05:22:00,77.0,69.0,29.81,South,171,8.0,14.0,77,0.00,,,0.00,,2013-06-26 10:22:00,
2013-06-26 05:34:00,77.0,70.0,29.81,SSE,160,10.0,22.0,78,0.00,,,0.00,,2013-06-26 10:34:00,
2013-06-26 05:43:00,77.0,70.0,29.81,SE,145,8.0,14.0,79,0.00,,,0.00,,2013-06-26 10:43:00,
2013-06-26 05:53:00,77.0,70.0,29.82,SE,142,10.0,18.0,79,0.00,,,0.00,,2013-06-26 10:53:00,
2013-06-26 06:02:00,77.0,70.0,29.83,SSE,160,8.0,13.0,80,0.00,,,0.00,,2013-06-26 11:02:00,
2013-06-26 06:11:00,77.0,71.0,29.82,SE,146,9.0,16.0,81,0.00,,,0.00,,2013-06-26 11:11:00,
2013-06-26 06:22:00,76.0,70.0,29.83,SSE,167,6.0,13.0,82,0.00,,,0.00,,2013-06-26 11:22:00,
2013-06-26 06:32:00,76.0,70.0,29.83,SSE,152,8.0,20.0,82,0.00,,,0.00,,2013-06-26 11:32:00,
2013-06-26 06:44:00,76.0,70.0,29.83,SSE,164,9.0,20.0,83,0.00,,,0.00,,2013-06-26 11:44:00,
2013-06-26 06:52:00,76.0,70.0,29.84,SSE,158,10.0,20.0,83,0.00,,,0.00,,2013-06-26 11:52:00,
2013-06-26 07:02:00,76.0,71.0,29.84,SSE,158,9.0,16.0,84,0.00,,,0.00,,2013-06-26 12:02:00,
2013-06-26 07:12:00,76.0,71.0,29.85,South,170,10.0,20.0,84,0.00,,,0.00,,2013-06-26 12:12:00,
2013-06-26 07:22:00,76.0,71.0,29.85,SE,139,10.0,22.0,84,0.00,,,0.00,,2013-06-26 12:22:00,
2013-06-26 07:33:00,76.0,71.0,29.85,SSE,156,10.0,20.0,84,0.00,,,0.00,,2013-06-26 12:33:00,
2013-06-26 07:42:00,76.0,71.0,29.85,SSE,158,9.0,16.0,84,0.00,,,0.00,,2013-06-26 12:42:00,
2013-06-26 07:52:00,77.0,71.0,29.85,South,183,9.0,28.0,83,0.00,,,0.00,,2013-06-26 12:52:00,
2013-06-26 08:02:00,77.0,71.0,29.86,SSE,161,9.0,14.0,82,0.00,,,0.00,,2013-06-26 13:02:00,
2013-06-26 08:11:00,77.0,71.0,29.86,SE,144,11.0,21.0,81,0.00,,,0.00,,2013-06-26 13:11:00,
2013-06-26 08:22:00,78.0,71.0,29.87,South,185,13.0,23.0,80,0.00,,,0.00,,2013-06-26 13:22:00,
2013-06-26 08:34:00,78.0,71.0,29.88,SSE,160,9.0,18.0,79,0.00,,,0.00,,2013-06-26 13:34:00,
2013-06-26 08:42:00,79.0,72.0,29.88,SSE,161,9.0,16.0,78,0.00,,,0.00,,2013-06-26 13:42:00,
2013-06-26 08:53:00,79.0,72.0,29.88,SSE,153,12.0,23.0,78,0.00,,,0.00,,2013-06-26 13:53:00,
2013-06-26 09:23:00,80.0,71.0,29.88,SSE,152,11.0,22.0,75,0.00,,,0.00,,2013-06-26 14:23:00,
2013-06-26 09:34:00,81.0,72.0,29.89,SE,145,12.0,20.0,74,0.00,,,0.00,,2013-06-26 14:34:00,
2013-06-26 09:42:00,81.0,72.0,29.89,SSE,155,10.0,18.0,73,0.00,,,0.00,,2013-06-26 14:42:00,
2013-06-26 09:52:00,82.0,72.0,29.89,South,172,11.0,21.0,72,0.00,,,0.00,,2013-06-26 14:52:00,
2013-06-26 10:02:00,82.0,72.0,29.89,South,180,7.0,22.0,72,0.00,,,0.00,,2013-06-26 15:02:00,
2013-06-26 10:11:00,83.0,73.0,29.89,SE,134,10.0,16.0,71,0.00,,,0.00,,2013-06-26 15:11:00,
2013-06-26 10:34:00,84.0,73.0,29.88,SSE,164,11.0,22.0,69,0.00,,,0.00,,2013-06-26 15:34:00,
2013-06-26 10:44:00,84.0,73.0,29.89,SSE,160,8.0,14.0,69,0.00,,,0.00,,2013-06-26 15:44:00,
2013-06-26 10:53:00,85.0,73.0,29.89,SSE,155,7.0,20.0,67,0.00,,,0.00,,2013-06-26 15:53:00,
2013-06-26 11:01:00,85.0,72.0,29.89,SE,140,10.0,20.0,66,0.00,,,0.00,,2013-06-26 16:01:00,
2013-06-26 11:11:00,86.0,73.0,29.89,SSE,151,9.0,18.0,65,0.00,,,0.00,,2013-06-26 16:11:00,
2013-06-26 11:22:00,86.0,73.0,29.89,SSW,205,12.0,24.0,65,0.00,,,0.00,,2013-06-26 16:22:00,
2013-06-26 11:34:00,87.0,74.0,29.89,South,175,10.0,16.0,65,0.00,,,0.00,,2013-06-26 16:34:00,
2013-06-26 11:43:00,87.0,73.0,29.89,South,175,10.0,21.0,64,0.00,,,0.00,,2013-06-26 16:43:00,
2013-06-26 11:52:00,87.0,73.0,29.89,South,186,9.0,21.0,63,0.00,,,0.00,,2013-06-26 16:52:00,
2013-06-26 12:01:00,88.0,73.0,29.88,SSE,168,11.0,20.0,62,0.00,,,0.00,,2013-06-26 17:01:00,
2013-06-26 12:11:00,88.0,73.0,29.88,SSE,154,8.0,16.0,61,0.00,,,0.00,,2013-06-26 17:11:00,
2013-06-26 12:23:00,89.0,74.0,29.88,SE,128,10.0,20.0,61,0.00,,,0.00,,2013-06-26 17:23:00,
2013-06-26 12:33:00,89.0,73.0,29.88,SE,142,12.0,21.0,59,0.00,,,0.00,,2013-06-26 17:33:00,
2013-06-26 12:43:00,90.0,74.0,29.88,SE,146,7.0,16.0,59,0.00,,,0.00,,2013-06-26 17:43:00,
2013-06-26 12:52:00,91.0,74.0,29.88,South,179,9.0,16.0,58,0.00,,,0.00,,2013-06-26 17:52:00,
2013-06-26 13:01:00,91.0,74.0,29.88,SSE,162,11.0,20.0,57,0.00,,,0.00,,2013-06-26 18:01:00,
2013-06-26 13:11:00,91.0,74.0,29.88,SE,143,11.0,21.0,57,0.00,,,0.00,,2013-06-26 18:11:00,
2013-06-26 13:22:00,91.0,74.0,29.87,SSE,152,12.0,20.0,57,0.00,,,0.00,,2013-06-26 18:22:00,
2013-06-26 13:34:00,92.0,75.0,29.87,South,177,14.0,24.0,57,0.00,,,0.00,,2013-06-26 18:34:00,
2013-06-26 13:43:00,91.0,73.0,29.86,SE,144,14.0,23.0,56,0.00,,,0.00,,2013-06-26 18:43:00,
2013-06-26 13:52:00,92.0,74.0,29.86,SSE,165,11.0,20.0,56,0.00,,,0.00,,2013-06-26 18:52:00,
2013-06-26 14:01:00,92.0,73.0,29.86,SSE,167,10.0,20.0,55,0.00,,,0.00,,2013-06-26 19:01:00,
2013-06-26 14:11:00,93.0,74.0,29.86,SSE,162,9.0,15.0,55,0.00,,,0.00,,2013-06-26 19:11:00,
2013-06-26 14:22:00,94.0,75.0,29.85,SSE,148,11.0,21.0,54,0.00,,,0.00,,2013-06-26 19:22:00,
2013-06-26 14:33:00,94.0,75.0,29.85,SE,132,9.0,15.0,55,0.00,,,0.00,,2013-06-26 19:33:00,
2013-06-26 14:42:00,94.0,75.0,29.84,SE,134,6.0,14.0,54,0.00,,,0.00,,2013-06-26 19:42:00,
2013-06-26 14:52:00,94.0,74.0,29.84,SE,139,10.0,21.0,53,0.00,,,0.00,,2013-06-26 19:52:00,
2013-06-26 15:01:00,94.0,74.0,29.83,SE,140,7.0,22.0,53,0.00,,,0.00,,2013-06-26 20:01:00,
2013-06-26 15:12:00,95.0,75.0,29.83,SSE,147,12.0,23.0,52,0.00,,,0.00,,2013-06-26 20:12:00,
2013-06-26 15:22:00,95.0,75.0,29.83,SE,132,9.0,18.0,53,0.00,,,0.00,,2013-06-26 20:22:00,
2013-06-26 15:33:00,95.0,75.0,29.83,SE,136,10.0,20.0,52,0.00,,,0.00,,2013-06-26 20:33:00,
2013-06-26 15:43:00,95.0,75.0,29.83,SSE,161,13.0,18.0,52,0.00,,,0.00,,2013-06-26 20:43:00,
2013-06-26 15:52:00,96.0,75.0,29.82,SSE,152,10.0,20.0,51,0.00,,,0.00,,2013-06-26 20:52:00,
2013-06-26 16:02:00,96.0,75.0,29.82,SE,140,10.0,18.0,51,0.00,,,0.00,,2013-06-26 21:02:00,
2013-06-26 16:11:00,96.0,74.0,29.81,SE,135,10.0,20.0,49,0.00,,,0.00,,2013-06-26 21:11:00,
2013-06-26 16:23:00,97.0,75.0,29.81,SSE,148,12.0,20.0,50,0.00,,,0.00,,2013-06-26 21:23:00,
2013-06-26 16:33:00,97.0,75.0,29.81,SE,142,12.0,23.0,50,0.00,,,0.00,,2013-06-26 21:33:00,
2013-06-26 16:43:00,97.0,76.0,29.81,SSE,153,10.0,20.0,51,0.00,,,0.00,,2013-06-26 21:43:00,
2013-06-26 16:52:00,97.0,75.0,29.81,SSE,156,11.0,21.0,49,0.00,,,0.00,,2013-06-26 21:52:00,
2013-06-26 17:01:00,97.0,75.0,29.80,SSE,155,10.0,18.0,49,0.00,,,0.00,,2013-06-26 22:01:00,
2013-06-26 17:11:00,97.0,75.0,29.81,ESE,118,12.0,20.0,49,0.00,,,0.00,,2013-06-26 22:11:00,
2013-06-26 17:21:00,97.0,75.0,29.80,SSE,167,7.0,16.0,49,0.00,,,0.00,,2013-06-26 22:21:00,
2013-06-26 17:33:00,97.0,74.0,29.80,SE,130,7.0,16.0,48,0.00,,,0.00,,2013-06-26 22:33:00,
2013-06-26 17:43:00,97.0,75.0,29.80,South,171,6.0,18.0,49,0.00,,,0.00,,2013-06-26 22:43:00,
2013-06-26 17:52:00,97.0,75.0,29.80,SE,132,6.0,14.0,49,0.00,,,0.00,,2013-06-26 22:52:00,
2013-06-26 18:01:00,97.0,75.0,29.80,SSE,153,8.0,18.0,49,0.00,,,0.00,,2013-06-26 23:01:00,
2013-06-26 18:11:00,97.0,75.0,29.80,SE,136,7.0,16.0,49,0.00,,,0.00,,2013-06-26 23:11:00,
2013-06-26 18:22:00,97.0,75.0,29.80,SSE,165,7.0,14.0,49,0.00,,,0.00,,2013-06-26 23:22:00,
2013-06-26 18:34:00,97.0,74.0,29.79,SSE,162,10.0,18.0,48,0.00,,,0.00,,2013-06-26 23:34:00,
2013-06-26 18:43:00,96.0,73.0,29.79,SE,132,9.0,21.0,48,0.00,,,0.00,,2013-06-26 23:43:00,
2013-06-26 18:52:00,97.0,74.0,29.79,SE,137,9.0,15.0,48,0.00,,,0.00,,2013-06-26 23:52:00,
2013-06-26 19:01:00,96.0,73.0,29.79,SSE,156,10.0,20.0,48,0.00,,,0.00,,2013-06-27 00:01:00,
2013-06-26 19:11:00,96.0,73.0,29.79,SE,140,10.0,18.0,48,0.00,,,0.00,,2013-06-27 00:11:00,
2013-06-26 19:22:00,96.0,72.0,29.79,SE,135,10.0,18.0,47,0.00,,,0.00,,2013-06-27 00:22:00,
2013-06-26 19:33:00,96.0,72.0,29.79,SE,136,11.0,18.0,47,0.00,,,0.00,,2013-06-27 00:33:00,
2013-06-26 19:42:00,95.0,72.0,29.78,SE,144,8.0,15.0,47,0.00,,,0.00,,2013-06-27 00:42:00,
2013-06-26 19:53:00,95.0,72.0,29.78,SSE,160,7.0,15.0,48,0.00,,,0.00,,2013-06-27 00:53:00,
2013-06-26 20:01:00,95.0,72.0,29.78,SSE,151,9.0,20.0,48,0.00,,,0.00,,2013-06-27 01:01:00,
2013-06-26 20:11:00,95.0,72.0,29.78,SE,138,6.0,12.0,48,0.00,,,0.00,,2013-06-27 01:11:00,
2013-06-26 20:32:00,95.0,72.0,29.78,SE,144,6.0,12.0,48,0.00,,,0.00,,2013-06-27 01:32:00,
2013-06-26 20:42:00,93.0,72.0,29.79,SSE,153,6.0,12.0,50,0.00,,,0.00,,2013-06-27 01:42:00,
2013-06-26 20:52:00,93.0,72.0,29.79,SSE,150,7.0,12.0,50,0.00,,,0.00,,2013-06-27 01:52:00,
2013-06-26 21:01:00,93.0,72.0,29.79,SSE,153,5.0,10.0,50,0.00,,,0.00,,2013-06-27 02:01:00,
2013-06-26 21:11:00,92.0,71.0,29.79,SE,146,7.0,13.0,51,0.00,,,0.00,,2013-06-27 02:11:00,
2013-06-26 21:22:00,92.0,71.0,29.79,SE,140,6.0,12.0,51,0.00,,,0.00,,2013-06-27 02:22:00,
2013-06-26 21:32:00,92.0,71.0,29.79,SSE,148,6.0,12.0,51,0.00,,,0.00,,2013-06-27 02:32:00,
2013-06-26 21:42:00,92.0,71.0,29.79,SSE,148,6.0,12.0,51,0.00,,,0.00,,2013-06-27 02:42:00,
2013-06-26 21:52:00,91.0,71.0,29.80,SSE,148,5.0,8.0,53,0.00,,,0.00,,2013-06-27 02:52:00,
2013-06-26 22:02:00,90.0,71.0,29.80,SSE,150,5.0,12.0,53,0.00,,,0.00,,2013-06-27 03:02:00,
2013-06-26 22:11:00,90.0,71.0,29.80,SE,146,3.0,12.0,54,0.00,,,0.00,,2013-06-27 03:11:00,
2013-06-26 22:21:00,90.0,71.0,29.80,SSE,147,3.0,9.0,54,0.00,,,0.00,,2013-06-27 03:21:00,
2013-06-26 22:32:00,90.0,71.0,29.80,SSE,147,3.0,9.0,54,0.00,,,0.00,,2013-06-27 03:32:00,
2013-06-26 22:42:00,89.0,71.0,29.81,SSE,153,4.0,8.0,56,0.00,,,0.00,,2013-06-27 03:42:00,
2013-06-26 22:52:00,89.0,71.0,29.82,SSE,153,3.0,8.0,56,0.00,,,0.00,,2013-06-27 03:52:00,
2013-06-26 23:01:00,89.0,71.0,29.82,SSE,153,3.0,8.0,56,0.00,,,0.00,,2013-06-27 04:01:00,
2013-06-26 23:11:00,88.0,71.0,29.82,SSE,153,2.0,7.0,57,0.00,,,0.00,,2013-06-27 04:11:00,
2013-06-26 23:32:00,88.0,71.0,29.82,SSE,153,2.0,5.0,57,0.00,,,0.00,,2013-06-27 04:32:00,
2013-06-26 23:42:00,86.0,70.0,29.84,SSE,153,3.0,6.0,60,0.00,,,0.00,,2013-06-27 04:42:00,
2013-06-26 23:52:00,86.0,70.0,29.84,SSE,153,5.0,7.0,60,0.00,,,0.00,,2013-06-27 04:52:00,